This is the latest recevied weather packets stored in our database for station/object IW0HP-13. If no packets are shown the sender has not sent any weather packets the latest 1 day(s).
| Time | Temp. | Humidity | Pressure | Rain* | Wind** | Luminosity | Snow |
|---|---|---|---|---|---|---|---|
| 1778099556 | 19.44° C | 52% | 1014.7 hPa | - | - | - | - |
| 1778095955 | 20° C | 50% | 1014.4 hPa | - | - | - | - |
| 1778094755 | 20° C | 52% | 1014.3 hPa | - | - | - | - |
| 1778093555 | 20° C | 53% | 1014.1 hPa | - | - | - | - |
| 1778091154 | 20° C | 52% | 1013.9 hPa | - | - | - | - |
| 1778089954 | 20° C | 54% | 1013.8 hPa | - | - | - | - |
| 1778086353 | 20° C | 51% | 1013.8 hPa | - | - | - | - |
| 1778085153 | 20.56° C | 52% | 1013.7 hPa | - | - | - | - |
| 1778083953 | 20.56° C | 50% | 1013.7 hPa | - | - | - | - |
| 1778081552 | 21.11° C | 48% | 1013.9 hPa | - | - | - | - |
| 1778080352 | 21.11° C | 49% | 1013.8 hPa | - | - | - | - |
| 1778076751 | 21.67° C | 47% | 1014 hPa | - | - | - | - |
| 1778075551 | 22.22° C | 46% | 1013.8 hPa | - | - | - | - |
| 1778071950 | 22.78° C | 42% | 1013.9 hPa | - | - | - | - |
| 1778070750 | 22.78° C | 41% | 1013.8 hPa | - | - | - | - |
| 1778063548 | 22.22° C | 40% | 1014.4 hPa | - | - | - | - |
| 1778062348 | 21.67° C | 41% | 1014.1 hPa | - | - | - | - |
| 1778061148 | 21.67° C | 45% | 1014.3 hPa | - | - | - | - |
| 1778059947 | 21.11° C | 47% | 1014.2 hPa | - | - | - | - |
| 1778057547 | 20.56° C | 52% | 1014.1 hPa | - | - | - | - |
| 1778053946 | 20° C | 52% | 1013.9 hPa | - | - | - | - |
| 1778052746 | 20° C | 52% | 1013.8 hPa | - | - | - | - |
| 1778049145 | 18.33° C | 59% | 1014.4 hPa | - | - | - | - |
| 1778047945 | 17.78° C | 61% | 1014.3 hPa | - | - | - | - |
| 1778046745 | 17.78° C | 60% | 1014.4 hPa | - | - | - | - |
* Rain since midnight (hover to see other rain measurements)
** Current wind speed in m/s (hover to see current wind gust speed)